Flight Track Log - Related Links

Times and Time Zones

All times are in EST time to prevent confusion due to time zone crossing. See the CNS128 flight status page for this flight to view local times or setup timezone preferences in your user account.

Time Position Orientation Groundspeed Altitude Reporting Facility
EST Latitude Longitude Course Direction KTS MPH feet Rate Location/Type
Fri 18:12:43 41.2825 -72.0611 27° Northeast 227 261 11,500  Level Boston Center
Fri 18:13:45 41.3506 -72.0150 27° Northeast 255 293 11,400 -48 Descending Boston Center
Fri 18:14:47 41.4156 -71.9714 27° Northeast 261 300 11,400 49 Level Boston Center
Fri 18:15:48 41.4803 -71.9278 27° Northeast 262 302 11,500 49 Climbing Boston Center
Fri 18:16:50 41.5497 -71.8803 27° Northeast 260 299 11,500  Level Boston Center
Fri 18:17:52 41.6147 -71.8367 27° Northeast 261 300 11,500  Level Boston Center
Fri 18:18:53 41.6800 -71.7922 27° Northeast 263 303 11,500  Level Boston Center
Fri 18:19:55 41.7508 -71.7447 27° Northeast 264 304 11,500  Level Boston Center
Fri 18:20:56 41.8169 -71.6997 27° Northeast 264 304 11,500  Level Boston Center
Fri 18:21:58 41.8825 -71.6547 27° Northeast 264 304 11,500  Level Boston Center
Fri 18:23:00 41.9486 -71.6097 27° Northeast 266 306 11,500  Level Boston Center
Fri 18:24:01 42.0194 -71.5614 27° Northeast 266 306 11,500  Level Boston Center
Fri 18:25:03 42.0856 -71.5164 27° Northeast 267 307 11,500  Level Boston Center
Fri 18:26:04 42.1517 -71.4714 27° Northeast 267 307 11,500  Level Boston Center
Fri 18:27:06 42.2219 -71.4217 28° Northeast 265 305 11,500  Level Boston Center
Fri 18:28:08 42.2886 -71.3767 27° Northeast 268 308 11,500  Level Boston Center
Fri 18:29:09 42.3592 -71.3278 27° Northeast 268 308 11,500  Level Boston Center
Fri 18:30:11 42.4247 -71.2814 28° Northeast 266 306 11,500  Level Boston Center
Fri 18:31:12 42.4906 -71.2358 27° Northeast 268 308 11,500 -390 Level Boston Center
Fri 18:32:14 42.5622 -71.1869 27° Northeast 269 310 10,700 -871 Descending Boston Center
Fri 18:33:16 42.6292 -71.1400 27° Northeast 271 312 9,700 -927 Descending Boston Center
Fri 18:34:17 42.6939 -71.0942 27° Northeast 265 305 8,800 -1,005 Descending Boston Center
Fri 18:36:21 42.8214 -71.0044 27° Northeast 247 284 6,600 -1,193 Descending Boston Center
Fri 18:37:18 42.8833 -70.9667 24° Northeast 232 267 5,200 -1,487 Descending KA90
Fri 18:38:18 42.9333 -70.9167 36° Northeast 219 252 3,700 -1,476 Descending KA90
Fri 18:39:24 42.9833 -70.8667 36° Northeast 169 194 2,100 -952 Descending KA90
Fri 18:40:24 43.0167 -70.8333 36° Northeast 135 155 1,700 -350 Descending KA90
Fri 18:41:24 43.0333 -70.8000 56° Northeast 126 145 1,400 -511 Descending KA90
Fri 18:43:32 43.0844 -70.8256 340° North 93 107 100 -609 Descending Boston Center
Fri 18:45:00 43.0779 -70.8233 166° South  Level Estimated
Fri 18:52:00 43.0779 -70.8233 North  Level Estimated
Fri 18:53:00 43.0779 -70.8233 North  Level Estimated
Fri 18:54:00 43.0779 -70.8233 North  Level Estimated
Fri 18:55:00 43.0779 -70.8233 North  Level Estimated
Fri 18:56:00 43.0779 -70.8233 North  Level Estimated
Fri 18:57:00 43.0779 -70.8233 North  Level Estimated

Login

Don't have an account? Register now (free) for customized features, flight alerts, and more!